Portada
METAR-TAF:

METAR-TAF

Aeroports :

Kinloss, Escòcia

latitud: 57-39N, longitud: 003-34W, altitud: 7 m

Observació

L'informe es va fer fa 39 minuts, a les 17:20 UTC
Vent 17 kt del Oest/Sud-Oest
Temperatura 4°C
Humitat 81%
Pressió 1007 hPa
Visibilitat 10 km o més

METAR: EGQK 311720Z AUTO 24017KT 9999 SCT034/// SCT096/// 04/01 Q1007

Hora: 17:59 (17:59 UTC)


TAF: manca

Observacions i pronòstics meteorològics de més de 4000 aeroports (METAR i TAF).

Les estacions disponibles són els punts grocs i vermells al mapa.

Posi el ratolí al punt desitjat per veure el nom de l'estació.

Feu clic per veure les observacions i els pronòstics meteorològics.

Per canviar el mapa: feu clic els botons verds amb una creu de color negre per apropar; al botó verd amb un guió per allunyar la imatge; o en les fletxes verdes per a mapes adjacents.


METAR-TAF: